Air Force Village West, CA

8:01 AM PDT on May 23, 2015 (GMT -0700)
March Air Reserve Base | | Change Station
CLOSE
Current Station
Airport
Location: Riverside March,
Elevation: 1535 ft
Nearby Weather Stations

Elev 1535 ft 33.90 °N, 117.25 °W | Updated 3 minutes ago

Mostly Cloudy
Mostly Cloudy
56 °F
Feels Like 56 °F
N
5
Wind Variable Wind from SE

Today
High -- | Low -- °F
--% Chance of Precip.
Yesterday
High -- | Low -- °F
Precip. -- in
5:42 AM 7:49 PM
Waxing Crescent, 30% visible
Pressure 30.07 in
Visibility 10.0 miles
Clouds Mostly Cloudy 2600 ft
Overcast 3100 ft
Dew Point 51 °F
Humidity 84%
Rainfall 0.00 in
Snow Depth Not available.
UV 1 out of 12
Pollen 4.80 out of 12
Air Quality Not available.
Flu Activity Sporadic
METAR KRIV 231458Z AUTO 13004KT 10SM BKN026 OVC031 13/11 A3008 RMK AO2 SLP182 T01320106

More Conditions Fewer Conditions

Pressure 30.07 in
Visibility 10.0 miles
Clouds Mostly Cloudy 2600 ft
Overcast 3100 ft
Dew Point 51 °F
Humidity 84%
Rainfall 0.00 in
Snow Depth Not available.
UV 1 out of 12
Pollen 4.80 out of 12
Air Quality Not available.
Flu Activity Sporadic
METAR KRIV 231458Z AUTO 13004KT 10SM BKN026 OVC031 13/11 A3008 RMK AO2 SLP182 T01320106

More Conditions Fewer Conditions

10-Day Weather Forecast

Almanac

Astronomy

May. 23, 2015 Rise Set
Actual Time
Civil Twilight
Nautical Twilight
Astronomical Twilight
Moon
Length of Visible Light
Length of Day
Tomorrow will be .
, % of the Moon is Illuminated

Today's Extremes

State Highs State Lows

Community

WunderPhotos

Upload Photos

1,823,485 photos uploaded!

WunderBlogs® & News

Nearby

Air Quality

  Air Quality AQ Index Pollutant
Not available.

Snow Depth

Station Depth Elevation

Earthquake Activity

City Distance Mag. Time & Date
Minimum magnitude displayed is 2.5.

Coastal Water Temperatures

Place Temperature

Stations

Nearby Weather Stations

Station Location Temp. Windchill Dew Point Humidity Wind Precip. Elev Updated Type